createdAt,value
2023-02-04T00:00:56.620Z,17.27
2023-02-04T00:05:58.473Z,4.78
2023-02-04T00:11:00.182Z,6.95
2023-02-04T00:16:01.946Z,8.63
2023-02-04T00:21:03.753Z,5.13
2023-02-04T00:26:05.646Z,5.28
2023-02-04T00:31:07.436Z,6.13
2023-02-04T00:36:09.437Z,7.10
2023-02-04T00:41:11.830Z,8.90
2023-02-04T00:46:13.624Z,7.85
2023-02-04T00:51:15.335Z,5.35
2023-02-04T00:56:17.019Z,6.70
2023-02-04T01:01:18.753Z,5.68
2023-02-04T01:06:20.631Z,6.45
2023-02-04T01:11:22.456Z,4.90
2023-02-04T01:16:24.349Z,3.83
2023-02-04T01:21:26.534Z,6.97
2023-02-04T01:26:28.311Z,2.78
2023-02-04T01:31:31.476Z,4.32
2023-02-04T01:36:33.284Z,6.28
2023-02-04T01:41:34.995Z,4.35
2023-02-04T01:46:37.571Z,6.72
2023-02-04T01:51:39.874Z,5.68
2023-02-04T01:56:45.955Z,7.78
2023-02-04T02:01:52.547Z,7.25
2023-02-04T02:06:58.582Z,11.05
2023-02-04T02:12:02.713Z,13.18
2023-02-04T02:17:04.455Z,9.27
2023-02-04T02:22:16.729Z,7.68
2023-02-04T02:27:18.600Z,11.55
2023-02-04T02:32:20.976Z,8.35
2023-02-04T02:37:22.754Z,15.50
2023-02-04T02:42:24.733Z,12.00
2023-02-04T02:47:28.272Z,10.40
2023-02-04T02:52:30.067Z,11.98
2023-02-04T02:57:31.759Z,19.80
2023-02-04T03:02:33.495Z,11.00
2023-02-04T03:07:35.312Z,8.93
2023-02-04T03:12:37.281Z,11.77
2023-02-04T03:17:39.692Z,11.60
2023-02-04T03:22:41.832Z,13.77
2023-02-04T03:27:43.984Z,10.77
2023-02-04T03:32:45.674Z,16.42
2023-02-04T03:37:47.512Z,12.65
2023-02-04T03:42:49.197Z,16.70
2023-02-04T03:47:51.029Z,15.80
2023-02-04T03:52:53.909Z,14.30
2023-02-04T03:57:55.559Z,13.10
2023-02-04T04:02:57.523Z,11.73
2023-02-04T04:07:59.370Z,9.98
2023-02-04T04:13:01.095Z,13.82
2023-02-04T04:18:04.496Z,17.38
2023-02-04T04:23:06.218Z,11.60
2023-02-04T04:28:08.065Z,6.63
2023-02-04T04:33:09.861Z,7.55
2023-02-04T04:38:11.628Z,12.70
2023-02-04T04:43:13.282Z,10.00
2023-02-04T04:48:15.075Z,10.95
2023-02-04T04:53:16.796Z,10.95
2023-02-04T04:58:18.450Z,9.40
2023-02-04T05:03:20.142Z,9.93
2023-02-04T05:08:21.862Z,16.65
2023-02-04T05:13:25.295Z,9.88
2023-02-04T05:18:26.944Z,14.25
2023-02-04T05:23:28.651Z,11.23
2023-02-04T05:28:30.301Z,21.27
2023-02-04T05:33:31.993Z,12.45
2023-02-04T05:38:33.655Z,17.00
2023-02-04T05:43:35.377Z,13.82
2023-02-04T05:48:37.106Z,13.57
2023-02-04T05:53:38.781Z,10.98
2023-02-04T05:58:40.484Z,11.55
2023-02-04T06:03:42.170Z,16.75
2023-02-04T06:08:43.937Z,10.15
2023-02-04T06:13:45.624Z,7.70
2023-02-04T06:18:47.317Z,16.40
2023-02-04T06:23:49.539Z,15.10
2023-02-04T06:28:51.385Z,17.75
2023-02-04T06:33:53.184Z,13.50
2023-02-04T06:38:55.034Z,12.50
2023-02-04T06:43:56.801Z,11.65
2023-02-04T06:48:58.546Z,9.50
2023-02-04T06:54:00.308Z,12.73
2023-02-04T06:59:03.370Z,12.80
2023-02-04T07:04:05.317Z,6.85
2023-02-04T07:09:06.959Z,22.77
2023-02-04T07:14:10.340Z,28.70
2023-02-04T07:19:12.536Z,11.65
2023-02-04T07:24:14.360Z,16.48
2023-02-04T07:29:24.161Z,19.08
2023-02-04T07:34:27.100Z,38.85
2023-02-04T07:39:28.812Z,61.13
2023-02-04T07:44:30.570Z,43.53
2023-02-04T07:49:32.349Z,23.35
2023-02-04T07:54:34.039Z,29.25
2023-02-04T07:59:35.738Z,24.48
2023-02-04T08:04:40.570Z,17.25
2023-02-04T08:09:42.528Z,13.35
2023-02-04T08:14:44.234Z,12.52
2023-02-04T08:19:45.860Z,11.73
2023-02-04T08:24:47.542Z,16.02
2023-02-04T08:29:49.300Z,12.25
2023-02-04T08:34:51.007Z,14.35
2023-02-04T08:39:53.263Z,12.23
2023-02-04T08:44:55.021Z,17.83
2023-02-04T08:49:56.743Z,22.60
2023-02-04T08:54:58.484Z,15.10
2023-02-04T09:00:00.315Z,18.50
2023-02-04T09:05:01.995Z,24.63
2023-02-04T09:10:03.986Z,13.30
2023-02-04T09:15:05.931Z,14.90
2023-02-04T09:20:07.915Z,19.60
2023-02-04T09:25:09.682Z,25.02
2023-02-04T09:30:12.017Z,23.60
2023-02-04T09:35:13.682Z,30.10
2023-02-04T09:40:17.525Z,17.13
2023-02-04T09:45:26.871Z,31.95
2023-02-04T09:50:32.138Z,30.45
2023-02-04T09:55:39.198Z,20.45
2023-02-04T10:00:40.908Z,21.58
2023-02-04T10:05:43.755Z,29.88
2023-02-04T10:10:48.124Z,25.90
2023-02-04T10:15:51.049Z,36.40
2023-02-04T10:21:14.026Z,28.95
2023-02-04T10:26:17.240Z,24.60
2023-02-04T10:31:30.798Z,23.20
2023-02-04T10:36:32.989Z,17.02
2023-02-04T10:41:38.756Z,22.70
2023-02-04T10:46:40.704Z,15.93
2023-02-04T10:51:42.446Z,21.45
2023-02-04T10:56:44.307Z,17.05
2023-02-04T11:01:46.036Z,21.63
2023-02-04T11:06:48.863Z,24.20
2023-02-04T11:11:51.830Z,17.25
2023-02-04T11:16:54.785Z,22.13
2023-02-04T11:22:07.004Z,19.20
2023-02-04T11:27:22.196Z,15.80
2023-02-04T11:32:37.587Z,19.33
2023-02-04T11:37:42.254Z,12.93
2023-02-04T11:42:44.204Z,15.02
2023-02-04T11:47:47.115Z,13.00
2023-02-04T11:52:49.002Z,15.05
2023-02-04T11:57:55.640Z,19.90
2023-02-04T12:03:06.177Z,20.40
2023-02-04T12:08:33.111Z,10.07
2023-02-04T12:13:45.346Z,15.70
2023-02-04T12:18:47.083Z,23.40
2023-02-04T12:23:48.739Z,17.15
2023-02-04T12:28:50.383Z,12.35
2023-02-04T12:33:54.202Z,11.05
2023-02-04T12:38:58.778Z,16.60
2023-02-04T12:44:01.328Z,12.30
2023-02-04T12:49:03.152Z,25.63
2023-02-04T12:54:04.914Z,14.80
2023-02-04T12:59:06.614Z,12.80
2023-02-04T13:04:08.403Z,11.85
2023-02-04T13:09:10.188Z,15.38
2023-02-04T13:14:11.943Z,17.27
2023-02-04T13:19:13.623Z,16.92
2023-02-04T13:24:15.305Z,16.35
2023-02-04T13:29:17.569Z,9.82
2023-02-04T13:34:19.603Z,12.07
2023-02-04T13:39:21.444Z,18.17
2023-02-04T13:44:23.108Z,14.15
2023-02-04T13:49:24.852Z,17.20
2023-02-04T13:54:26.565Z,11.82
2023-02-04T13:59:28.424Z,21.05
2023-02-04T14:04:30.118Z,23.33
2023-02-04T14:09:31.782Z,13.93
2023-02-04T14:14:33.640Z,12.68
2023-02-04T14:19:35.426Z,12.98
2023-02-04T14:24:38.853Z,11.73
2023-02-04T14:29:40.570Z,11.60
2023-02-04T14:34:42.713Z,12.75
2023-02-04T14:39:44.410Z,11.93
2023-02-04T14:44:46.166Z,10.82
2023-02-04T14:49:47.928Z,8.45
2023-02-04T14:54:49.656Z,10.52
2023-02-04T14:59:51.506Z,8.65
2023-02-04T15:04:53.251Z,11.15
2023-02-04T15:09:55.116Z,11.52
2023-02-04T15:14:56.759Z,6.45
2023-02-04T15:19:58.621Z,8.45
2023-02-04T15:25:00.462Z,8.93
2023-02-04T15:30:02.239Z,9.20
2023-02-04T15:35:04.298Z,12.88
2023-02-04T15:40:06.609Z,2.85
2023-02-04T15:45:08.540Z,3.53
2023-02-04T15:50:11.068Z,11.30
2023-02-04T15:55:15.487Z,11.88
2023-02-04T16:00:17.371Z,9.80
2023-02-04T16:05:19.061Z,7.15
2023-02-04T16:10:20.810Z,8.95
2023-02-04T16:15:22.749Z,7.88
2023-02-04T16:20:24.458Z,7.95
2023-02-04T16:25:26.599Z,4.65
2023-02-04T16:30:28.436Z,6.20
2023-02-04T16:35:30.593Z,7.60
2023-02-04T16:40:32.742Z,4.75
2023-02-04T16:45:34.915Z,8.65
2023-02-04T16:50:36.871Z,9.13
2023-02-04T16:55:39.760Z,7.22
2023-02-04T17:00:49.923Z,8.43
2023-02-04T17:05:51.872Z,6.28
2023-02-04T17:11:20.365Z,8.82
2023-02-04T17:16:44.235Z,13.73
2023-02-04T17:22:00.669Z,18.13
2023-02-04T17:27:35.204Z,29.05
2023-02-04T17:32:47.048Z,52.08
2023-02-04T17:38:12.445Z,19.33
2023-02-04T17:43:38.213Z,17.00
2023-02-04T17:54:16.818Z,13.80
2023-02-04T17:59:21.876Z,21.88
2023-02-04T18:04:38.008Z,17.85
2023-02-04T18:09:58.040Z,10.80
2023-02-04T18:15:09.546Z,17.55
2023-02-04T18:25:37.350Z,20.70
2023-02-04T18:30:49.774Z,18.42
2023-02-04T18:36:16.523Z,7.05
2023-02-04T18:41:24.232Z,22.08
2023-02-04T18:46:33.746Z,19.67
2023-02-04T18:51:53.200Z,19.95
2023-02-04T18:57:10.575Z,8.48
2023-02-04T19:02:39.786Z,15.07
2023-02-04T19:07:42.358Z,18.63
2023-02-04T19:18:20.829Z,12.00
2023-02-04T19:23:28.691Z,13.70
2023-02-04T19:28:37.848Z,13.85
2023-02-04T19:33:42.737Z,12.23
2023-02-04T19:38:46.535Z,18.65
2023-02-04T19:43:48.808Z,16.40
2023-02-04T19:48:51.541Z,13.15
2023-02-04T19:53:59.150Z,17.45
2023-02-04T19:59:21.593Z,12.25
2023-02-04T20:04:23.719Z,18.80
2023-02-04T20:09:29.703Z,14.27
2023-02-04T20:14:51.111Z,14.40
2023-02-04T20:19:53.373Z,10.25
2023-02-04T20:24:58.911Z,22.73
2023-02-04T20:30:12.531Z,10.32
2023-02-04T20:35:14.743Z,12.43
2023-02-04T20:40:21.865Z,17.95
2023-02-04T20:45:41.598Z,34.53
2023-02-04T20:50:54.212Z,32.33
2023-02-04T20:56:04.120Z,25.83
2023-02-04T21:01:34.476Z,22.15
2023-02-04T21:06:37.173Z,49.75
2023-02-04T21:11:39.559Z,35.78
2023-02-04T21:16:41.767Z,40.13
2023-02-04T21:21:44.325Z,25.90
2023-02-04T21:26:46.842Z,25.40
2023-02-04T21:31:51.437Z,153.88
2023-02-04T21:36:56.228Z,67.47
2023-02-04T21:42:10.745Z,31.00
2023-02-04T21:47:13.917Z,61.17
2023-02-04T21:52:16.125Z,90.78
2023-02-04T21:57:19.312Z,100.90
2023-02-04T22:02:23.820Z,62.55
2023-02-04T22:07:26.512Z,23.65
2023-02-04T22:12:28.716Z,16.30
2023-02-04T22:17:31.073Z,12.63
2023-02-04T22:22:33.638Z,10.65
2023-02-04T22:27:36.108Z,11.75
2023-02-04T22:32:38.499Z,9.00
2023-02-04T22:37:42.392Z,13.02
2023-02-04T22:42:45.002Z,43.50
2023-02-04T22:47:47.352Z,33.22
2023-02-04T22:52:49.523Z,29.52
2023-02-04T22:57:51.672Z,34.30
2023-02-04T23:02:54.897Z,37.17
2023-02-04T23:07:57.181Z,57.70
2023-02-04T23:12:59.620Z,49.42
2023-02-04T23:18:01.794Z,48.45
2023-02-04T23:23:04.471Z,34.00
2023-02-04T23:28:07.072Z,43.63
2023-02-04T23:33:10.757Z,65.25
2023-02-04T23:38:13.149Z,45.92
2023-02-04T23:43:16.229Z,87.20
2023-02-04T23:48:18.468Z,74.03
2023-02-04T23:53:21.336Z,37.92
2023-02-04T23:58:23.480Z,34.92
